CheckWX is a tool to help pilots better visualize weather data.  It is not intended as a substitute for an official pre-flight weather briefing.

22:15:00 UTC

KCRX METAR
Roscoe Turner Airport
Corinth, Mississippi, USA
Current

20 mins ago

KCRX 152155Z AUTO 15010KT 10SM FEW031 BKN039 BKN046 28/22 A3000 RMK AO2
Observed
Jul-15 @ 21:55 UTC
Wind
  • 150° at 10 KTS
Visibility
10 SM
Flight Rules
VFR
Cloud Levels
  • Few at 3,100' AGL
  • Broken at 3,900' AGL
  • Broken at 4,600' AGL
Temperature
28°C / 82°F
Dewpoint
22°C / 72°F
Heat Index
30°C / 86°F
Humidity
70%
Altimeter
30" Hg
Pressure
1015.92 hPa
Previous

40 mins ago

KCRX 152135Z AUTO 15009G15KT 10SM FEW037 SCT046 BKN055 28/22 A3000 RMK AO2
Observed
Jul-15 @ 21:35 UTC
Wind
  • 150° at 9 KTS
  • Gusting to 15 KTS
Visibility
10 SM
Flight Rules
VFR
Cloud Levels
  • Few at 3,700' AGL
  • Scattered at 4,600' AGL
  • Broken at 5,500' AGL
Temperature
28°C / 82°F
Dewpoint
22°C / 72°F
Heat Index
30°C / 86°F
Humidity
70%
Altimeter
30" Hg
Pressure
1015.92 hPa
Previous

60 mins ago

KCRX 152115Z AUTO 18008KT 10SM FEW024 SCT031 SCT038 28/23 A3001 RMK AO2
Observed
Jul-15 @ 21:15 UTC
Wind
  • 180° at 8 KTS
Visibility
10 SM
Flight Rules
VFR
Cloud Levels
  • Few at 2,400' AGL
  • Scattered at 3,100' AGL
  • Scattered at 3,800' AGL
Temperature
28°C / 82°F
Dewpoint
23°C / 73°F
Heat Index
31°C / 87°F
Humidity
74%
Altimeter
30.01" Hg
Pressure
1016.22 hPa